createdAt,value
2018-11-26T00:00:15.908Z,13.00
2018-11-26T00:02:44.287Z,12.73
2018-11-26T00:05:12.711Z,12.43
2018-11-26T00:07:40.890Z,11.83
2018-11-26T00:10:20.339Z,12.67
2018-11-26T00:12:48.759Z,12.60
2018-11-26T00:15:16.930Z,11.33
2018-11-26T00:17:45.365Z,12.33
2018-11-26T00:20:13.531Z,12.33
2018-11-26T00:22:41.717Z,12.10
2018-11-26T00:25:09.919Z,12.57
2018-11-26T00:27:38.107Z,12.27
2018-11-26T00:30:07.298Z,12.10
2018-11-26T00:32:35.480Z,12.10
2018-11-26T00:35:03.675Z,11.47
2018-11-26T00:37:32.113Z,12.20
2018-11-26T00:40:00.334Z,11.37
2018-11-26T00:42:28.537Z,11.57
2018-11-26T00:44:56.707Z,12.07
2018-11-26T00:47:24.901Z,12.10
2018-11-26T00:49:53.097Z,12.13
2018-11-26T00:52:21.273Z,12.13
2018-11-26T00:54:49.474Z,11.43
2018-11-26T00:57:17.645Z,11.70
2018-11-26T00:59:45.859Z,11.73
2018-11-26T01:02:14.035Z,12.30
2018-11-26T01:04:42.224Z,11.13
2018-11-26T01:07:10.412Z,11.43
2018-11-26T01:09:38.640Z,11.17
2018-11-26T01:12:07.093Z,12.37
2018-11-26T01:14:35.306Z,11.77
2018-11-26T01:17:03.477Z,11.57
2018-11-26T01:19:31.699Z,10.63
2018-11-26T01:21:59.872Z,11.30
2018-11-26T01:24:28.283Z,10.40
2018-11-26T01:26:56.477Z,11.20
2018-11-26T01:29:24.666Z,10.80
2018-11-26T01:31:52.895Z,10.53
2018-11-26T01:34:21.151Z,11.03
2018-11-26T01:36:49.317Z,11.00
2018-11-26T01:39:17.519Z,11.87
2018-11-26T01:41:45.697Z,11.37
2018-11-26T01:44:13.898Z,12.20
2018-11-26T01:46:42.080Z,11.07
2018-11-26T01:49:10.262Z,11.37
2018-11-26T01:51:38.466Z,13.27
2018-11-26T01:54:07.061Z,12.20
2018-11-26T01:56:35.278Z,11.13
2018-11-26T01:59:03.704Z,11.47
2018-11-26T02:01:32.108Z,11.47
2018-11-26T02:04:00.335Z,12.37
2018-11-26T02:06:28.515Z,11.83
2018-11-26T02:08:56.730Z,11.53
2018-11-26T02:11:24.946Z,12.50
2018-11-26T02:13:53.124Z,11.60
2018-11-26T02:16:21.532Z,11.87
2018-11-26T02:18:49.713Z,11.53
2018-11-26T02:21:18.161Z,12.23
2018-11-26T02:23:46.560Z,13.37
2018-11-26T02:26:14.761Z,12.27
2018-11-26T02:28:42.972Z,12.30
2018-11-26T02:31:11.438Z,11.67
2018-11-26T02:33:39.645Z,11.93
2018-11-26T02:36:08.216Z,13.17
2018-11-26T02:38:36.434Z,12.63
2018-11-26T02:41:04.643Z,13.27
2018-11-26T02:43:32.883Z,12.80
2018-11-26T02:46:01.069Z,12.80
2018-11-26T02:48:29.240Z,13.33
2018-11-26T02:50:57.440Z,13.33
2018-11-26T02:53:25.843Z,13.87
2018-11-26T02:55:54.484Z,11.87
2018-11-26T02:58:22.648Z,13.37
2018-11-26T03:00:50.869Z,13.10
2018-11-26T03:03:19.060Z,13.00
2018-11-26T03:05:47.278Z,12.47
2018-11-26T03:08:15.452Z,12.80
2018-11-26T03:10:43.628Z,13.30
2018-11-26T03:13:12.756Z,13.03
2018-11-26T03:15:40.921Z,14.00
2018-11-26T03:18:09.096Z,12.63
2018-11-26T03:20:37.285Z,13.13
2018-11-26T03:23:06.492Z,13.17
2018-11-26T03:25:34.672Z,12.53
2018-11-26T03:28:03.099Z,13.67
2018-11-26T03:30:31.287Z,13.73
2018-11-26T03:32:59.504Z,13.77
2018-11-26T03:35:27.710Z,14.63
2018-11-26T03:37:55.876Z,13.60
2018-11-26T03:40:24.077Z,14.27
2018-11-26T03:42:52.492Z,15.23
2018-11-26T03:45:20.958Z,13.67
2018-11-26T03:47:49.128Z,13.83
2018-11-26T03:50:17.333Z,15.57
2018-11-26T03:52:45.936Z,14.17
2018-11-26T03:55:14.343Z,14.83
2018-11-26T03:57:42.743Z,14.80
2018-11-26T04:00:13.326Z,14.63
2018-11-26T04:02:41.518Z,14.30
2018-11-26T04:05:10.170Z,15.43
2018-11-26T04:07:38.593Z,15.47
2018-11-26T04:10:08.444Z,15.10
2018-11-26T04:12:36.671Z,15.80
2018-11-26T04:15:05.619Z,15.13
2018-11-26T04:17:33.843Z,16.73
2018-11-26T04:20:02.016Z,16.63
2018-11-26T04:22:30.204Z,17.00
2018-11-26T04:24:58.396Z,16.20
2018-11-26T04:27:26.593Z,16.90
2018-11-26T04:29:55.024Z,15.60
2018-11-26T04:32:23.204Z,15.70
2018-11-26T04:34:51.380Z,15.77
2018-11-26T04:37:19.563Z,16.20
2018-11-26T04:39:47.736Z,15.67
2018-11-26T04:42:16.165Z,16.53
2018-11-26T04:44:44.369Z,15.63
2018-11-26T04:47:12.563Z,15.93
2018-11-26T04:49:40.740Z,17.37
2018-11-26T04:52:09.198Z,15.60
2018-11-26T04:54:37.401Z,15.60
2018-11-26T04:57:05.940Z,16.03
2018-11-26T04:59:34.128Z,17.03
2018-11-26T05:02:06.133Z,17.10
2018-11-26T05:04:34.308Z,19.07
2018-11-26T05:07:02.500Z,17.37
2018-11-26T05:09:30.698Z,18.17
2018-11-26T05:11:58.884Z,15.37
2018-11-26T05:14:27.072Z,16.63
2018-11-26T05:16:55.332Z,16.47
2018-11-26T05:19:23.513Z,16.27
2018-11-26T05:21:51.704Z,16.40
2018-11-26T05:24:20.170Z,15.53
2018-11-26T05:26:48.572Z,16.33
2018-11-26T05:29:16.773Z,15.13
2018-11-26T05:31:44.954Z,16.67
2018-11-26T05:34:13.194Z,14.73
2018-11-26T05:36:41.410Z,14.20
2018-11-26T05:39:09.615Z,16.30
2018-11-26T05:41:37.789Z,15.13
2018-11-26T05:44:05.977Z,16.40
2018-11-26T05:46:34.182Z,15.57
2018-11-26T05:49:02.585Z,16.23
2018-11-26T05:51:30.797Z,15.83
2018-11-26T05:53:59.029Z,15.63
2018-11-26T05:56:27.233Z,15.00
2018-11-26T05:58:55.420Z,15.70
2018-11-26T06:01:23.607Z,15.23
2018-11-26T06:03:51.834Z,15.77
2018-11-26T06:06:20.016Z,14.97
2018-11-26T06:08:48.200Z,16.27
2018-11-26T06:11:16.406Z,16.07
2018-11-26T06:13:44.804Z,14.40
2018-11-26T06:16:13.249Z,14.40
2018-11-26T06:18:41.433Z,14.73
2018-11-26T06:21:09.650Z,16.73
2018-11-26T06:23:37.828Z,16.23
2018-11-26T06:26:06.039Z,15.10
2018-11-26T06:28:34.244Z,15.43
2018-11-26T06:31:02.415Z,16.57
2018-11-26T06:33:30.622Z,15.27
2018-11-26T06:35:58.784Z,16.23
2018-11-26T06:38:27.006Z,15.73
2018-11-26T06:40:55.188Z,16.17
2018-11-26T06:43:23.410Z,15.93
2018-11-26T06:45:51.585Z,15.90
2018-11-26T06:48:19.862Z,15.13
2018-11-26T06:50:48.048Z,17.03
2018-11-26T06:53:16.449Z,16.87
2018-11-26T06:55:44.624Z,15.90
2018-11-26T06:58:12.800Z,15.40
2018-11-26T07:00:41.004Z,15.83
2018-11-26T07:03:09.169Z,16.47
2018-11-26T07:05:37.368Z,15.67
2018-11-26T07:08:05.622Z,15.37
2018-11-26T07:10:33.948Z,18.10
2018-11-26T07:13:02.150Z,17.23
2018-11-26T07:15:30.339Z,16.33
2018-11-26T07:17:58.956Z,16.23
2018-11-26T07:20:27.414Z,17.43
2018-11-26T07:22:55.588Z,15.53
2018-11-26T07:25:23.780Z,18.47
2018-11-26T07:27:53.551Z,18.80
2018-11-26T07:30:26.278Z,18.33
2018-11-26T07:32:54.482Z,18.00
2018-11-26T07:35:22.680Z,17.00
2018-11-26T07:37:50.856Z,16.27
2018-11-26T07:40:21.661Z,16.47
2018-11-26T07:42:52.433Z,17.37
2018-11-26T07:45:20.849Z,16.23
2018-11-26T07:47:49.028Z,15.80
2018-11-26T07:50:17.678Z,17.77
2018-11-26T07:52:45.851Z,17.87
2018-11-26T07:55:15.356Z,18.23
2018-11-26T07:57:43.601Z,20.23
2018-11-26T08:00:16.907Z,18.33
2018-11-26T08:02:45.549Z,17.43
2018-11-26T08:05:14.875Z,17.17
2018-11-26T08:07:43.057Z,18.07
2018-11-26T08:10:13.936Z,16.70
2018-11-26T08:12:42.192Z,16.00
2018-11-26T08:15:12.829Z,17.03
2018-11-26T08:17:41.585Z,18.23
2018-11-26T08:20:10.252Z,18.33
2018-11-26T08:22:38.434Z,15.30
2018-11-26T08:25:09.325Z,16.33
2018-11-26T08:27:37.831Z,14.97
2018-11-26T08:30:36.898Z,13.57
2018-11-26T08:33:05.948Z,12.93
2018-11-26T08:35:34.191Z,12.83
2018-11-26T08:38:07.346Z,13.90
2018-11-26T08:40:41.190Z,13.80
2018-11-26T08:43:14.720Z,13.97
2018-11-26T08:45:49.452Z,14.10
2018-11-26T08:48:23.152Z,13.63
2018-11-26T08:50:51.351Z,14.43
2018-11-26T08:53:19.563Z,15.87
2018-11-26T08:55:48.018Z,15.97
2018-11-26T08:58:16.200Z,17.23
2018-11-26T09:00:44.386Z,16.07
2018-11-26T09:03:17.929Z,15.20
2018-11-26T09:05:50.374Z,17.63
2018-11-26T09:08:18.768Z,17.73
2018-11-26T09:10:46.965Z,16.93
2018-11-26T09:13:15.151Z,18.17
2018-11-26T09:15:43.618Z,17.43
2018-11-26T09:18:11.834Z,18.03
2018-11-26T09:20:40.054Z,18.40
2018-11-26T09:23:08.237Z,17.93
2018-11-26T09:25:36.440Z,17.30
2018-11-26T09:28:04.731Z,19.57
2018-11-26T09:30:32.967Z,18.77
2018-11-26T09:33:01.992Z,17.60
2018-11-26T09:35:30.189Z,16.50
2018-11-26T09:37:58.390Z,17.47
2018-11-26T09:40:26.577Z,18.73
2018-11-26T09:42:54.790Z,16.50
2018-11-26T09:45:22.993Z,16.33
2018-11-26T09:47:51.222Z,16.23
2018-11-26T09:50:21.096Z,15.83
2018-11-26T09:52:49.271Z,17.93
2018-11-26T09:55:17.501Z,17.83
2018-11-26T09:57:45.956Z,14.20
2018-11-26T10:00:16.746Z,14.83
2018-11-26T10:02:49.243Z,14.80
2018-11-26T10:05:18.678Z,16.97
2018-11-26T10:07:47.100Z,14.03
2018-11-26T10:10:15.361Z,13.37
2018-11-26T10:12:44.108Z,14.30
2018-11-26T10:15:21.665Z,15.90
2018-11-26T10:17:49.907Z,13.73
2018-11-26T10:20:18.100Z,15.83
2018-11-26T10:22:46.711Z,15.13
2018-11-26T10:25:17.132Z,15.57
2018-11-26T10:27:45.324Z,14.13
2018-11-26T10:30:14.692Z,14.43
2018-11-26T10:32:43.141Z,14.40
2018-11-26T10:35:13.320Z,13.63
2018-11-26T10:37:41.743Z,14.43
2018-11-26T10:40:13.190Z,14.50
2018-11-26T10:42:41.386Z,14.87
2018-11-26T10:45:11.793Z,14.27
2018-11-26T10:47:39.985Z,12.87
2018-11-26T10:50:11.876Z,15.27
2018-11-26T10:52:41.273Z,14.20
2018-11-26T10:55:12.442Z,14.07
2018-11-26T10:57:40.636Z,14.53
2018-11-26T11:00:16.140Z,16.17
2018-11-26T11:02:44.699Z,15.97
2018-11-26T11:05:12.881Z,15.53
2018-11-26T11:07:41.065Z,16.23
2018-11-26T11:10:11.204Z,17.73
2018-11-26T11:12:39.501Z,24.50
2018-11-26T11:15:09.788Z,28.50
2018-11-26T11:17:38.007Z,26.33
2018-11-26T11:20:09.729Z,46.13
2018-11-26T11:22:38.048Z,34.73
2018-11-26T11:25:07.135Z,29.70
2018-11-26T11:27:35.313Z,14.97
2018-11-26T11:30:06.022Z,27.33
2018-11-26T11:32:34.218Z,16.73
2018-11-26T11:35:02.435Z,14.63
2018-11-26T11:37:30.650Z,16.23
2018-11-26T11:39:59.055Z,15.07
2018-11-26T11:42:27.271Z,14.63
2018-11-26T11:44:55.450Z,14.90
2018-11-26T11:47:23.723Z,15.70
2018-11-26T11:49:51.931Z,14.60
2018-11-26T11:52:20.117Z,13.57
2018-11-26T11:54:48.318Z,15.13
2018-11-26T11:57:16.547Z,15.63
2018-11-26T11:59:44.721Z,18.33
2018-11-26T12:02:16.057Z,23.07
2018-11-26T12:04:41.550Z,21.97
2018-11-26T12:07:09.745Z,19.90
2018-11-26T12:09:37.966Z,17.77
2018-11-26T12:12:06.158Z,17.00
2018-11-26T12:14:34.522Z,14.30
2018-11-26T12:17:03.024Z,17.07
2018-11-26T12:19:31.382Z,15.90
2018-11-26T12:21:59.546Z,16.93
2018-11-26T12:24:27.768Z,16.60
2018-11-26T12:26:55.979Z,16.97
2018-11-26T12:29:24.195Z,16.27
2018-11-26T12:31:52.433Z,17.67
2018-11-26T12:34:20.649Z,18.63
2018-11-26T12:36:49.047Z,19.93
2018-11-26T12:39:17.454Z,19.57
2018-11-26T12:41:45.625Z,18.53
2018-11-26T12:44:13.852Z,20.43
2018-11-26T12:46:42.037Z,19.63
2018-11-26T12:49:10.246Z,18.77
2018-11-26T12:51:38.487Z,17.93
2018-11-26T12:54:06.715Z,17.40
2018-11-26T12:56:34.939Z,18.00
2018-11-26T12:59:03.148Z,18.93
2018-11-26T13:01:31.422Z,17.60
2018-11-26T13:03:59.745Z,18.40
2018-11-26T13:06:28.149Z,18.13
2018-11-26T13:08:56.340Z,17.43
2018-11-26T13:11:24.526Z,17.57
2018-11-26T13:13:52.739Z,17.87
2018-11-26T13:16:20.913Z,18.37
2018-11-26T13:18:49.378Z,18.40
2018-11-26T13:21:17.546Z,17.60
2018-11-26T13:23:45.995Z,17.40
2018-11-26T13:26:14.216Z,18.27
2018-11-26T13:28:42.411Z,19.03
2018-11-26T13:31:10.586Z,19.60
2018-11-26T13:33:38.782Z,18.73
2018-11-26T13:36:07.125Z,21.03
2018-11-26T13:38:35.312Z,23.70
2018-11-26T13:41:03.705Z,19.43
2018-11-26T13:43:32.122Z,20.90
2018-11-26T13:46:00.335Z,19.63
2018-11-26T13:48:28.522Z,17.37
2018-11-26T13:50:57.040Z,17.33
2018-11-26T13:53:25.234Z,19.23
2018-11-26T13:55:53.437Z,19.87
2018-11-26T13:58:21.652Z,20.77
2018-11-26T14:00:50.085Z,19.63
2018-11-26T14:03:18.352Z,20.50
2018-11-26T14:05:46.559Z,20.87
2018-11-26T14:08:14.745Z,20.23
2018-11-26T14:10:42.926Z,21.07
2018-11-26T14:13:13.717Z,22.70
2018-11-26T14:15:41.981Z,21.20
2018-11-26T14:18:10.170Z,20.80
2018-11-26T14:20:38.374Z,22.50
2018-11-26T14:23:07.698Z,21.70
2018-11-26T14:25:35.890Z,20.20
2018-11-26T14:28:04.086Z,21.80
2018-11-26T14:30:32.277Z,20.03
2018-11-26T14:33:00.458Z,21.23
2018-11-26T14:35:28.653Z,19.83
2018-11-26T14:38:00.462Z,21.87
2018-11-26T14:40:31.846Z,20.60
2018-11-26T14:43:00.071Z,21.10
2018-11-26T14:45:28.299Z,21.47
2018-11-26T14:47:56.736Z,22.17
2018-11-26T14:50:24.937Z,22.20
2018-11-26T14:52:53.138Z,21.93
2018-11-26T14:55:23.401Z,21.43
2018-11-26T14:57:51.609Z,20.67
2018-11-26T15:00:20.714Z,20.00
2018-11-26T15:02:48.928Z,20.13
2018-11-26T15:05:17.193Z,20.47
2018-11-26T15:07:45.574Z,20.00
2018-11-26T15:10:16.050Z,20.43
2018-11-26T15:12:44.786Z,21.07
2018-11-26T15:15:15.026Z,22.80
2018-11-26T15:17:43.856Z,21.93
2018-11-26T15:20:13.601Z,21.10
2018-11-26T15:22:43.462Z,20.63
2018-11-26T15:25:15.902Z,21.03
2018-11-26T15:27:44.338Z,22.27
2018-11-26T15:30:14.733Z,24.63
2018-11-26T15:32:43.695Z,28.07
2018-11-26T15:35:14.289Z,24.13
2018-11-26T15:37:42.513Z,21.23
2018-11-26T15:40:12.028Z,20.93
2018-11-26T15:42:40.253Z,19.83
2018-11-26T15:45:13.927Z,22.77
2018-11-26T15:47:42.139Z,20.80
2018-11-26T15:50:10.463Z,22.20
2018-11-26T15:52:38.987Z,19.37
2018-11-26T15:55:09.113Z,22.43
2018-11-26T15:57:37.563Z,21.00
2018-11-26T16:00:12.547Z,23.07
2018-11-26T16:02:40.783Z,22.70
2018-11-26T16:05:11.778Z,21.70
2018-11-26T16:07:40.283Z,23.57
2018-11-26T16:10:11.017Z,21.57
2018-11-26T16:12:39.674Z,23.37
2018-11-26T16:15:19.857Z,22.40
2018-11-26T16:17:48.202Z,19.90
2018-11-26T16:20:18.275Z,24.53
2018-11-26T16:22:46.803Z,21.00
2018-11-26T16:25:16.518Z,20.87
2018-11-26T16:27:44.890Z,19.00
2018-11-26T16:30:15.315Z,19.43
2018-11-26T16:32:46.064Z,21.70
2018-11-26T16:35:15.994Z,21.13
2018-11-26T16:37:44.382Z,19.70
2018-11-26T16:40:13.877Z,19.60
2018-11-26T16:42:42.170Z,19.77
2018-11-26T16:45:18.303Z,21.13
2018-11-26T16:47:47.879Z,19.87
2018-11-26T16:50:17.419Z,19.37
2018-11-26T16:52:45.711Z,20.83
2018-11-26T16:55:14.957Z,18.50
2018-11-26T16:57:43.349Z,20.23
2018-11-26T17:00:16.972Z,20.17
2018-11-26T17:02:45.971Z,17.73
2018-11-26T17:05:18.660Z,18.90
2018-11-26T17:07:46.898Z,19.63
2018-11-26T17:10:15.251Z,22.10
2018-11-26T17:12:43.500Z,20.23
2018-11-26T17:15:12.949Z,21.50
2018-11-26T17:17:41.182Z,23.60
2018-11-26T17:20:11.728Z,23.00
2018-11-26T17:22:40.129Z,21.57
2018-11-26T17:25:09.836Z,25.20
2018-11-26T17:27:38.906Z,26.43
2018-11-26T17:30:14.262Z,24.20
2018-11-26T17:32:42.513Z,23.60
2018-11-26T17:35:12.155Z,24.23
2018-11-26T17:37:42.787Z,21.80
2018-11-26T17:40:12.582Z,20.13
2018-11-26T17:42:40.754Z,24.10
2018-11-26T17:45:10.838Z,22.23
2018-11-26T17:47:39.326Z,24.30
2018-11-26T17:50:12.098Z,24.67
2018-11-26T17:52:40.355Z,22.20
2018-11-26T17:55:09.649Z,21.70
2018-11-26T17:57:37.983Z,22.23
2018-11-26T18:00:10.397Z,19.80
2018-11-26T18:02:38.611Z,22.63
2018-11-26T18:05:11.018Z,23.47
2018-11-26T18:07:39.474Z,21.30
2018-11-26T18:10:11.164Z,25.50
2018-11-26T18:12:39.504Z,21.77
2018-11-26T18:15:12.857Z,23.57
2018-11-26T18:17:41.247Z,20.87
2018-11-26T18:20:12.765Z,21.13
2018-11-26T18:22:40.983Z,21.07
2018-11-26T18:25:10.442Z,21.97
2018-11-26T18:27:40.349Z,20.27
2018-11-26T18:30:17.782Z,21.50
2018-11-26T18:32:46.033Z,21.67
2018-11-26T18:35:14.738Z,19.43
2018-11-26T18:37:43.161Z,20.80
2018-11-26T18:40:13.637Z,20.20
2018-11-26T18:42:41.844Z,18.83
2018-11-26T18:45:15.398Z,19.63
2018-11-26T18:47:44.148Z,19.73
2018-11-26T18:50:20.727Z,19.40
2018-11-26T18:52:50.301Z,19.47
2018-11-26T18:55:18.819Z,21.30
2018-11-26T18:57:47.035Z,20.77
2018-11-26T19:00:21.453Z,18.97
2018-11-26T19:02:50.227Z,20.50
2018-11-26T19:05:19.242Z,22.93
2018-11-26T19:07:47.449Z,27.03
2018-11-26T19:10:17.869Z,32.57
2018-11-26T19:12:48.636Z,26.73
2018-11-26T19:15:20.519Z,41.30
2018-11-26T19:17:49.208Z,37.93
2018-11-26T19:20:17.569Z,27.77
2018-11-26T19:22:45.805Z,26.30
2018-11-26T19:25:15.926Z,21.23
2018-11-26T19:27:44.124Z,21.37
2018-11-26T19:30:14.041Z,17.87
2018-11-26T19:32:43.422Z,19.27
2018-11-26T19:35:13.223Z,20.10
2018-11-26T19:37:41.462Z,20.47
2018-11-26T19:40:12.505Z,19.70
2018-11-26T19:42:41.457Z,24.73
2018-11-26T19:45:15.185Z,24.60
2018-11-26T19:47:43.392Z,28.27
2018-11-26T19:50:12.861Z,24.03
2018-11-26T19:52:41.461Z,20.97
2018-11-26T19:55:12.932Z,19.80
2018-11-26T19:57:41.165Z,20.10
2018-11-26T20:00:13.213Z,24.43
2018-11-26T20:02:41.542Z,21.80
2018-11-26T20:05:18.237Z,19.03
2018-11-26T20:07:46.425Z,19.00
2018-11-26T20:10:14.667Z,19.43
2018-11-26T20:12:42.939Z,21.00
2018-11-26T20:15:13.210Z,24.93
2018-11-26T20:17:41.530Z,22.93
2018-11-26T20:20:10.102Z,20.33
2018-11-26T20:22:38.494Z,20.10
2018-11-26T20:25:12.690Z,19.53
2018-11-26T20:27:41.145Z,18.20
2018-11-26T20:30:14.989Z,19.03
2018-11-26T20:32:45.222Z,18.03
2018-11-26T20:35:13.461Z,19.03
2018-11-26T20:37:41.854Z,19.73
2018-11-26T20:40:14.007Z,20.33
2018-11-26T20:42:46.887Z,19.10
2018-11-26T20:45:15.766Z,21.80
2018-11-26T20:47:44.839Z,19.70
2018-11-26T20:50:29.794Z,18.97
2018-11-26T20:52:58.101Z,20.87
2018-11-26T20:55:26.567Z,19.60
2018-11-26T20:57:56.011Z,19.80
2018-11-26T21:00:25.672Z,20.30
2018-11-26T21:02:54.965Z,19.63
2018-11-26T21:05:23.193Z,19.83
2018-11-26T21:07:51.521Z,18.10
2018-11-26T21:10:19.729Z,17.33
2018-11-26T21:12:47.913Z,18.67
2018-11-26T21:19:49.721Z,18.23
2018-11-26T21:22:15.463Z,19.17
2018-11-26T21:24:44.282Z,17.27
2018-11-26T21:27:12.615Z,18.53
2018-11-26T21:29:41.024Z,18.50
2018-11-26T21:32:09.309Z,19.23
2018-11-26T21:34:37.709Z,18.77
2018-11-26T21:37:06.394Z,18.13
2018-11-26T21:39:34.678Z,20.10
2018-11-26T21:42:03.159Z,18.43
2018-11-26T21:44:31.394Z,19.10
2018-11-26T21:46:59.874Z,19.40
2018-11-26T21:49:28.137Z,19.40
2018-11-26T21:51:56.365Z,19.10
2018-11-26T21:54:24.649Z,18.97
2018-11-26T21:56:53.710Z,18.20
2018-11-26T21:59:22.276Z,19.97
2018-11-26T22:01:50.543Z,17.80
2018-11-26T22:04:18.813Z,17.97
2018-11-26T22:06:47.055Z,18.50
2018-11-26T22:09:15.409Z,18.17
2018-11-26T22:11:43.639Z,17.37
2018-11-26T22:14:11.998Z,18.07
2018-11-26T22:16:40.085Z,18.27
2018-11-26T22:19:08.344Z,19.03
2018-11-26T22:21:36.571Z,18.00
2018-11-26T22:24:04.817Z,20.13
2018-11-26T22:26:33.065Z,18.23
2018-11-26T22:29:01.293Z,19.97
2018-11-26T22:31:29.517Z,19.47
2018-11-26T22:33:57.795Z,18.23
2018-11-26T22:36:26.025Z,18.87
2018-11-26T22:38:54.244Z,18.70
2018-11-26T22:41:22.462Z,18.47
2018-11-26T22:43:50.709Z,17.97
2018-11-26T22:46:18.943Z,19.00
2018-11-26T22:48:47.394Z,18.27
2018-11-26T22:51:15.607Z,18.33
2018-11-26T22:53:43.829Z,18.67
2018-11-26T22:56:12.078Z,17.40
2018-11-26T22:58:40.558Z,20.30
2018-11-26T23:01:09.003Z,18.87
2018-11-26T23:03:37.441Z,16.90
2018-11-26T23:06:06.067Z,17.33
2018-11-26T23:08:34.445Z,16.37
2018-11-26T23:11:02.651Z,17.67
2018-11-26T23:13:30.869Z,18.73
2018-11-26T23:15:59.081Z,18.97
2018-11-26T23:18:27.290Z,17.27
2018-11-26T23:20:55.721Z,18.80
2018-11-26T23:23:23.945Z,17.83
2018-11-26T23:25:52.162Z,19.00
2018-11-26T23:28:20.396Z,17.63
2018-11-26T23:30:48.833Z,18.43
2018-11-26T23:33:17.307Z,18.90
2018-11-26T23:35:45.794Z,17.67
2018-11-26T23:38:14.003Z,17.50
2018-11-26T23:40:42.224Z,17.17
2018-11-26T23:43:10.665Z,17.97
2018-11-26T23:45:38.897Z,16.80
2018-11-26T23:48:07.110Z,17.67
2018-11-26T23:50:36.117Z,18.63
2018-11-26T23:53:05.347Z,18.37
2018-11-26T23:55:33.560Z,19.00
2018-11-26T23:58:01.732Z,18.63
